Time;durP1;ratioP1;P1;durP2;ratioP2;P2;SDS_P1;SDS_P2;PMS_P1;PMS_P2;Temp;Humidity;BMP_temperature;BMP_pressure;BME280_temperature;BME280_humidity;BME280_pressure;Samples;Min_cycle;Max_cycle;Signal;HPM_P1;HPM_P2
2024/01/03 00:01:17;;;;;;;;;;;17.70;44.00;;;;;;1603603;73;1354;-60
2024/01/03 00:03:18;;;;;;;;;;;17.70;44.00;;;;;;1598130;73;1132;-60
2024/01/03 00:05:22;;;;;;;;;;;17.70;44.00;;;;;;1609577;73;1082;-60
2024/01/03 00:07:24;;;;;;;;;;;17.70;44.00;;;;;;1611994;73;1867;-60
2024/01/03 00:09:26;;;;;;;;;;;17.70;44.00;;;;;;1608567;73;713;-59
2024/01/03 00:11:30;;;;;;;;;;;17.80;44.00;;;;;;1615986;73;1927;-60
2024/01/03 00:13:33;;;;;;;;;;;17.70;44.10;;;;;;1603650;73;1147;-60
2024/01/03 00:15:37;;;;;;;;;;;17.80;44.00;;;;;;1602043;73;1578;-61
2024/01/03 00:17:39;;;;;;;;;;;17.80;44.00;;;;;;1605295;73;776;-61
2024/01/03 00:19:41;;;;;;;;;;;17.70;44.00;;;;;;1605810;73;724;-60
2024/01/03 00:21:43;;;;;;;;;;;17.80;44.00;;;;;;1610133;73;768;-59
2024/01/03 00:23:49;;;;;;;;;;;17.80;44.00;;;;;;1601593;73;1151;-60
2024/01/03 00:25:50;;;;;;;;;;;17.70;44.00;;;;;;1601693;73;864;-60
2024/01/03 00:27:54;;;;;;;;;;;17.80;44.00;;;;;;1604876;73;732;-60
2024/01/03 00:29:57;;;;;;;;;;;17.70;44.00;;;;;;1610263;73;1515;-61
2024/01/03 00:31:59;;;;;;;;;;;17.70;44.00;;;;;;1602117;73;1909;-60
2024/01/03 00:34:01;;;;;;;;;;;17.70;44.00;;;;;;1604578;73;1176;-60
2024/01/03 00:36:03;;;;;;;;;;;17.70;44.00;;;;;;1606412;73;718;-61
2024/01/03 00:38:05;;;;;;;;;;;17.70;44.00;;;;;;1603083;73;674;-60
2024/01/03 00:40:08;;;;;;;;;;;17.70;44.00;;;;;;1609009;73;784;-60
2024/01/03 00:42:10;;;;;;;;;;;17.70;44.10;;;;;;1539943;76;1483;-61
2024/01/03 00:44:12;;;;;;;;;;;17.70;44.00;;;;;;1559049;75;1638;-61
2024/01/03 00:46:14;;;;;;;;;;;17.80;44.00;;;;;;1564004;74;759;-60
2024/01/03 00:48:16;;;;;;;;;;;17.80;44.00;;;;;;1562853;74;688;-60
2024/01/03 00:50:18;;;;;;;;;;;17.70;44.00;;;;;;1561379;74;706;-60
2024/01/03 00:52:20;;;;;;;;;;;17.70;44.00;;;;;;1565479;74;1937;-60
2024/01/03 00:54:22;;;;;;;;;;;17.70;44.10;;;;;;1547462;74;1150;-59
2024/01/03 00:56:24;;;;;;;;;;;17.80;44.00;;;;;;1563914;74;716;-61
2024/01/03 00:58:26;;;;;;;;;;;17.80;44.00;;;;;;1545114;76;1522;-60
2024/01/03 01:00:28;;;;;;;;;;;17.80;44.00;;;;;;1539746;76;692;-60
2024/01/03 01:02:30;;;;;;;;;;;17.70;44.00;;;;;;1569020;74;690;-60
2024/01/03 01:04:32;;;;;;;;;;;17.70;43.90;;;;;;1554437;76;1118;-59
2024/01/03 01:06:34;;;;;;;;;;;17.70;44.00;;;;;;1602775;73;1089;-60
2024/01/03 01:08:36;;;;;;;;;;;17.70;44.00;;;;;;1603422;73;749;-60
2024/01/03 01:10:38;;;;;;;;;;;17.70;44.00;;;;;;1597810;73;1514;-60
2024/01/03 01:12:40;;;;;;;;;;;17.70;44.00;;;;;;1597278;73;1929;-59
2024/01/03 01:14:41;;;;;;;;;;;17.70;44.00;;;;;;1603471;73;1112;-60
2024/01/03 01:16:43;;;;;;;;;;;17.70;44.00;;;;;;1597336;73;764;-59
2024/01/03 01:18:45;;;;;;;;;;;17.70;44.00;;;;;;1601041;73;709;-59
2024/01/03 01:20:47;;;;;;;;;;;17.70;44.00;;;;;;1596876;73;774;-60
2024/01/03 01:22:49;;;;;;;;;;;17.70;44.00;;;;;;1608296;73;1127;-59
2024/01/03 01:24:51;;;;;;;;;;;17.80;44.00;;;;;;1603605;73;1574;-59
2024/01/03 01:26:53;;;;;;;;;;;17.80;43.90;;;;;;1595126;73;745;-59
2024/01/03 01:28:55;;;;;;;;;;;17.70;43.90;;;;;;1603789;73;799;-59
2024/01/03 01:30:57;;;;;;;;;;;17.70;43.90;;;;;;1607558;73;780;-59
2024/01/03 01:32:58;;;;;;;;;;;17.70;44.00;;;;;;1597672;73;1899;-59
2024/01/03 01:35:00;;;;;;;;;;;17.70;44.00;;;;;;1598303;73;737;-59
2024/01/03 01:37:02;;;;;;;;;;;17.70;44.00;;;;;;1596366;73;728;-58
2024/01/03 01:39:04;;;;;;;;;;;17.70;44.00;;;;;;1598994;73;1573;-60
2024/01/03 01:41:06;;;;;;;;;;;17.80;43.90;;;;;;1596172;73;831;-59
2024/01/03 01:43:08;;;;;;;;;;;17.80;44.00;;;;;;1597744;73;1241;-59
2024/01/03 01:45:10;;;;;;;;;;;17.70;43.90;;;;;;1595857;73;789;-60
2024/01/03 01:47:12;;;;;;;;;;;17.70;44.00;;;;;;1610961;73;718;-60
2024/01/03 01:49:16;;;;;;;;;;;17.80;43.90;;;;;;1602862;73;721;-58
2024/01/03 01:51:18;;;;;;;;;;;17.80;44.00;;;;;;1605198;73;687;-59
2024/01/03 01:53:20;;;;;;;;;;;17.70;44.00;;;;;;1603964;73;1911;-59
2024/01/03 01:55:22;;;;;;;;;;;17.70;43.90;;;;;;1603105;73;678;-59
2024/01/03 01:57:24;;;;;;;;;;;17.70;44.00;;;;;;1599388;73;746;-59
2024/01/03 01:59:25;;;;;;;;;;;17.70;43.90;;;;;;1604073;73;762;-59
2024/01/03 02:01:27;;;;;;;;;;;17.70;44.00;;;;;;1598853;73;851;-59
2024/01/03 02:03:29;;;;;;;;;;;17.70;43.90;;;;;;1597609;73;1139;-60
2024/01/03 02:05:32;;;;;;;;;;;17.80;43.90;;;;;;1602820;73;1121;-57
2024/01/03 02:07:34;;;;;;;;;;;17.70;44.00;;;;;;1577437;74;1511;-60
2024/01/03 02:09:36;;;;;;;;;;;17.70;43.90;;;;;;1574309;74;706;-56
2024/01/03 02:11:45;;;;;;;;;;;17.70;43.90;;;;;;1573663;74;783;-59
2024/01/03 02:13:49;;;;;;;;;;;17.70;44.00;;;;;;1566866;74;1946;-59
2024/01/03 02:15:51;;;;;;;;;;;17.70;43.90;;;;;;1576560;74;847;-60
2024/01/03 02:17:54;;;;;;;;;;;17.70;43.90;;;;;;1511105;77;748;-60
2024/01/03 02:20:00;;;;;;;;;;;17.70;43.90;;;;;;1583031;74;712;-59
2024/01/03 02:22:02;;;;;;;;;;;17.70;43.90;;;;;;1587330;73;1193;-58
2024/01/03 02:24:04;;;;;;;;;;;17.70;43.90;;;;;;1584549;74;1084;-59
2024/01/03 02:26:06;;;;;;;;;;;17.70;43.90;;;;;;1581892;73;765;-59
2024/01/03 02:28:09;;;;;;;;;;;17.70;43.90;;;;;;1584266;74;743;-60
2024/01/03 02:30:12;;;;;;;;;;;17.70;43.90;;;;;;1587257;74;697;-60
2024/01/03 02:32:14;;;;;;;;;;;17.70;43.90;;;;;;1582655;73;1902;-59
2024/01/03 02:34:15;;;;;;;;;;;17.70;44.00;;;;;;1580210;74;1128;-60
2024/01/03 02:36:17;;;;;;;;;;;17.70;43.90;;;;;;1584955;74;1293;-60
2024/01/03 02:38:21;;;;;;;;;;;17.70;43.90;;;;;;1585678;74;720;-60
2024/01/03 02:40:23;;;;;;;;;;;17.70;43.90;;;;;;1581913;73;900;-58
2024/01/03 02:42:25;;;;;;;;;;;17.80;43.90;;;;;;1548327;75;762;-59
2024/01/03 02:44:27;;;;;;;;;;;17.80;44.00;;;;;;1589175;74;1174;-61
2024/01/03 02:46:29;;;;;;;;;;;17.70;43.90;;;;;;1583362;73;747;-58
2024/01/03 02:48:31;;;;;;;;;;;17.80;43.90;;;;;;1587369;74;786;-58
2024/01/03 02:50:33;;;;;;;;;;;17.70;43.90;;;;;;1584627;74;1383;-60
2024/01/03 02:52:35;;;;;;;;;;;17.70;43.90;;;;;;1575805;73;1897;-59
2024/01/03 02:54:37;;;;;;;;;;;17.70;43.90;;;;;;1577469;74;1120;-59
2024/01/03 02:56:42;;;;;;;;;;;17.80;44.00;;;;;;1588290;73;746;-59
2024/01/03 02:58:43;;;;;;;;;;;17.80;43.90;;;;;;1581910;74;788;-61
2024/01/03 03:00:45;;;;;;;;;;;17.70;44.00;;;;;;1507898;77;709;-58
2024/01/03 03:02:47;;;;;;;;;;;17.70;44.00;;;;;;1573203;74;1143;-57
2024/01/03 03:04:49;;;;;;;;;;;17.80;44.00;;;;;;1576843;73;1326;-60
2024/01/03 03:06:51;;;;;;;;;;;17.80;44.00;;;;;;1587818;73;1104;-59
2024/01/03 03:08:53;;;;;;;;;;;17.80;43.90;;;;;;1595918;73;762;-59
2024/01/03 03:10:55;;;;;;;;;;;17.70;44.00;;;;;;1591680;73;746;-60
2024/01/03 03:12:57;;;;;;;;;;;17.80;44.00;;;;;;1593313;73;1926;-59
2024/01/03 03:14:59;;;;;;;;;;;17.70;44.00;;;;;;1589935;73;786;-59
2024/01/03 03:17:00;;;;;;;;;;;17.70;44.00;;;;;;1594390;73;724;-61
2024/01/03 03:19:03;;;;;;;;;;;17.70;44.00;;;;;;1592748;73;1451;-60
2024/01/03 03:21:06;;;;;;;;;;;17.70;44.00;;;;;;1596403;73;750;-60
2024/01/03 03:23:08;;;;;;;;;;;17.70;44.00;;;;;;1589579;73;1131;-59
2024/01/03 03:25:10;;;;;;;;;;;17.70;43.90;;;;;;1595681;73;758;-59
2024/01/03 03:27:12;;;;;;;;;;;17.70;44.00;;;;;;1598833;73;680;-60
2024/01/03 03:29:13;;;;;;;;;;;17.70;44.00;;;;;;1595089;73;798;-60
2024/01/03 03:31:15;;;;;;;;;;;17.70;44.10;;;;;;1590608;73;1341;-59
2024/01/03 03:33:17;;;;;;;;;;;17.70;44.00;;;;;;1593543;73;1932;-60
2024/01/03 03:35:19;;;;;;;;;;;17.70;44.00;;;;;;1595844;73;777;-59
2024/01/03 03:37:22;;;;;;;;;;;17.70;44.00;;;;;;1592521;73;828;-60
2024/01/03 03:39:24;;;;;;;;;;;17.70;44.00;;;;;;1593424;73;720;-59
2024/01/03 03:41:26;;;;;;;;;;;17.70;44.00;;;;;;1601205;73;649;-59
2024/01/03 03:43:28;;;;;;;;;;;17.70;44.00;;;;;;1594615;73;1194;-60
2024/01/03 03:45:31;;;;;;;;;;;17.70;44.00;;;;;;1590572;73;1552;-60
2024/01/03 03:47:33;;;;;;;;;;;17.80;44.10;;;;;;1592361;73;801;-60
2024/01/03 03:49:35;;;;;;;;;;;17.70;44.00;;;;;;1598392;73;853;-60
2024/01/03 03:51:37;;;;;;;;;;;17.70;44.00;;;;;;1592663;73;773;-61
2024/01/03 03:53:39;;;;;;;;;;;17.80;43.90;;;;;;1594301;73;1935;-59
2024/01/03 03:55:42;;;;;;;;;;;17.70;44.00;;;;;;1594181;73;751;-60
2024/01/03 03:57:44;;;;;;;;;;;17.70;44.00;;;;;;1595789;73;704;-59
2024/01/03 03:59:46;;;;;;;;;;;17.70;44.00;;;;;;1589229;73;1598;-59
2024/01/03 04:01:49;;;;;;;;;;;17.80;43.90;;;;;;1603080;73;670;-59
2024/01/03 04:03:51;;;;;;;;;;;17.70;44.00;;;;;;1597214;73;1128;-59
2024/01/03 04:05:53;;;;;;;;;;;17.70;43.90;;;;;;1593905;73;713;-59
2024/01/03 04:07:55;;;;;;;;;;;17.80;43.90;;;;;;1585848;73;1083;-60
2024/01/03 04:09:57;;;;;;;;;;;17.70;44.00;;;;;;1539737;75;703;-60
2024/01/03 04:11:59;;;;;;;;;;;17.80;43.90;;;;;;1544808;75;794;-60
2024/01/03 04:14:01;;;;;;;;;;;17.70;43.90;;;;;;1545350;75;1939;-60
2024/01/03 04:16:06;;;;;;;;;;;17.70;44.00;;;;;;1548129;75;771;-60
2024/01/03 04:18:08;;;;;;;;;;;17.80;44.00;;;;;;1537747;75;760;-59
2024/01/03 04:20:10;;;;;;;;;;;17.70;44.00;;;;;;1549868;75;684;-59
2024/01/03 04:22:12;;;;;;;;;;;17.70;44.00;;;;;;1551048;75;745;-60
2024/01/03 04:24:14;;;;;;;;;;;17.70;44.00;;;;;;1551283;75;1141;-61
2024/01/03 04:26:18;;;;;;;;;;;17.70;43.90;;;;;;1580368;73;614;-59
2024/01/03 04:28:19;;;;;;;;;;;17.70;43.90;;;;;;1589008;73;1556;-58
2024/01/03 04:30:21;;;;;;;;;;;17.80;44.00;;;;;;1592396;73;810;-60
2024/01/03 04:32:23;;;;;;;;;;;17.70;43.90;;;;;;1590404;73;731;-59
2024/01/03 04:34:25;;;;;;;;;;;17.70;44.00;;;;;;1582858;73;1912;-59
2024/01/03 04:36:27;;;;;;;;;;;17.70;44.00;;;;;;1582235;73;711;-59
2024/01/03 04:38:29;;;;;;;;;;;17.70;44.00;;;;;;1578378;73;806;-60
2024/01/03 04:40:31;;;;;;;;;;;17.70;43.90;;;;;;1588871;73;779;-60
2024/01/03 04:42:32;;;;;;;;;;;17.70;43.90;;;;;;1586091;73;1398;-60
2024/01/03 04:44:34;;;;;;;;;;;17.70;43.90;;;;;;1544409;75;1161;-60
2024/01/03 04:46:37;;;;;;;;;;;17.70;44.00;;;;;;1538226;75;759;-60
2024/01/03 04:48:39;;;;;;;;;;;17.70;43.90;;;;;;1550813;75;741;-60
2024/01/03 04:50:41;;;;;;;;;;;17.70;44.00;;;;;;1537284;75;748;-61
2024/01/03 04:52:43;;;;;;;;;;;17.70;43.90;;;;;;1535853;75;816;-60
2024/01/03 04:54:44;;;;;;;;;;;17.80;44.00;;;;;;1539409;75;1948;-61
2024/01/03 04:56:47;;;;;;;;;;;17.70;44.00;;;;;;1533701;75;1464;-60
2024/01/03 04:58:49;;;;;;;;;;;17.70;43.90;;;;;;1536760;75;924;-60
2024/01/03 05:00:50;;;;;;;;;;;17.80;43.90;;;;;;1540928;75;755;-60
2024/01/03 05:02:52;;;;;;;;;;;17.80;43.90;;;;;;1540541;75;1133;-60
2024/01/03 05:04:54;;;;;;;;;;;17.80;43.90;;;;;;1533632;75;787;-60
2024/01/03 05:06:56;;;;;;;;;;;17.70;43.90;;;;;;1535354;75;677;-61
2024/01/03 05:08:58;;;;;;;;;;;17.70;43.90;;;;;;1561153;74;1144;-60
2024/01/03 05:11:00;;;;;;;;;;;17.70;43.90;;;;;;1569174;74;1541;-61
2024/01/03 05:13:02;;;;;;;;;;;17.70;44.00;;;;;;1571606;74;1151;-61
2024/01/03 05:15:05;;;;;;;;;;;17.80;44.00;;;;;;1572286;74;1937;-60
2024/01/03 05:17:06;;;;;;;;;;;17.70;44.00;;;;;;1572182;74;741;-60
2024/01/03 05:19:08;;;;;;;;;;;17.80;44.00;;;;;;1573035;74;795;-59
2024/01/03 05:21:11;;;;;;;;;;;17.70;43.90;;;;;;1580346;74;733;-61
2024/01/03 05:23:12;;;;;;;;;;;17.70;43.90;;;;;;1567437;74;1132;-59
2024/01/03 05:25:14;;;;;;;;;;;17.70;43.90;;;;;;1568278;74;1513;-61
2024/01/03 05:27:16;;;;;;;;;;;17.70;44.00;;;;;;1567667;74;793;-58
2024/01/03 05:29:18;;;;;;;;;;;17.70;44.00;;;;;;1567746;74;769;-58
2024/01/03 05:31:20;;;;;;;;;;;17.80;44.00;;;;;;1562836;74;674;-61
2024/01/03 05:33:22;;;;;;;;;;;17.70;44.00;;;;;;1566068;74;1963;-58
2024/01/03 05:35:24;;;;;;;;;;;17.70;44.00;;;;;;1576969;74;795;-59
2024/01/03 05:37:25;;;;;;;;;;;17.70;44.00;;;;;;1573413;74;751;-60
2024/01/03 05:39:27;;;;;;;;;;;17.70;44.00;;;;;;1567306;74;1570;-59
2024/01/03 05:41:29;;;;;;;;;;;17.80;44.00;;;;;;1566658;74;674;-59
2024/01/03 05:43:31;;;;;;;;;;;17.70;44.00;;;;;;1570950;74;1125;-60
2024/01/03 05:45:33;;;;;;;;;;;17.70;44.00;;;;;;1571273;74;770;-60
2024/01/03 05:47:35;;;;;;;;;;;17.70;44.00;;;;;;1562743;74;687;-58
2024/01/03 05:49:37;;;;;;;;;;;17.70;44.00;;;;;;1576049;75;749;-61
2024/01/03 05:51:39;;;;;;;;;;;17.70;44.00;;;;;;1569336;74;690;-60
2024/01/03 05:53:47;;;;;;;;;;;17.70;44.00;;;;;;1574813;74;1927;-60
2024/01/03 05:55:44;;;;;;;;;;;17.70;44.00;;;;;;1572732;74;1688;-58
2024/01/03 05:57:46;;;;;;;;;;;17.80;44.00;;;;;;1576254;74;882;-60
2024/01/03 05:59:48;;;;;;;;;;;17.70;44.00;;;;;;1580125;74;667;-60
2024/01/03 06:01:51;;;;;;;;;;;17.80;44.00;;;;;;1566759;74;677;-60
2024/01/03 06:03:53;;;;;;;;;;;17.80;44.00;;;;;;1559786;74;1158;-60
2024/01/03 06:05:54;;;;;;;;;;;17.70;44.00;;;;;;1570972;74;1520;-60
2024/01/03 06:07:56;;;;;;;;;;;17.70;44.10;;;;;;1575873;74;1079;-60
2024/01/03 06:09:58;;;;;;;;;;;17.70;44.00;;;;;;1566049;74;703;-60
2024/01/03 06:12:00;;;;;;;;;;;17.70;44.10;;;;;;1561951;74;805;-60
2024/01/03 06:14:02;;;;;;;;;;;17.80;44.10;;;;;;1566461;74;1940;-60
2024/01/03 06:16:04;;;;;;;;;;;17.70;44.10;;;;;;1577591;74;693;-61
2024/01/03 06:18:06;;;;;;;;;;;17.70;44.10;;;;;;1567835;74;769;-60
2024/01/03 06:20:08;;;;;;;;;;;17.70;44.10;;;;;;1566001;74;1480;-60
2024/01/03 06:22:10;;;;;;;;;;;17.70;44.10;;;;;;1564731;74;760;-60
2024/01/03 06:24:12;;;;;;;;;;;17.70;44.10;;;;;;1577273;74;1143;-60
2024/01/03 06:26:14;;;;;;;;;;;17.80;44.10;;;;;;1572976;74;763;-60
2024/01/03 06:28:16;;;;;;;;;;;17.70;44.10;;;;;;1570400;74;699;-59
2024/01/03 06:30:18;;;;;;;;;;;17.70;44.10;;;;;;1574084;74;607;-60
2024/01/03 06:32:19;;;;;;;;;;;17.70;44.10;;;;;;1563013;74;719;-60
2024/01/03 06:34:21;;;;;;;;;;;17.70;44.00;;;;;;1565626;74;1917;-61
2024/01/03 06:36:23;;;;;;;;;;;17.70;44.10;;;;;;1565577;74;731;-60
2024/01/03 06:38:25;;;;;;;;;;;17.70;44.10;;;;;;1563735;74;752;-58
2024/01/03 06:40:27;;;;;;;;;;;17.70;44.00;;;;;;1571961;74;748;-60
2024/01/03 06:42:29;;;;;;;;;;;17.70;44.00;;;;;;1572241;74;760;-61
2024/01/03 06:44:31;;;;;;;;;;;17.70;44.10;;;;;;1569699;74;1120;-58
2024/01/03 06:46:33;;;;;;;;;;;17.80;44.10;;;;;;1568832;74;857;-59
2024/01/03 06:48:34;;;;;;;;;;;17.70;44.10;;;;;;1569623;74;1546;-59
2024/01/03 06:50:36;;;;;;;;;;;17.70;44.10;;;;;;1563897;74;747;-60
2024/01/03 06:52:38;;;;;;;;;;;17.70;44.10;;;;;;1562466;74;778;-59
2024/01/03 06:54:40;;;;;;;;;;;17.80;44.10;;;;;;1572012;74;1934;-60
2024/01/03 06:56:42;;;;;;;;;;;17.70;44.10;;;;;;1569137;74;711;-60
2024/01/03 06:58:44;;;;;;;;;;;17.80;44.00;;;;;;1570876;74;711;-61
2024/01/03 07:00:46;;;;;;;;;;;17.70;44.10;;;;;;1568486;74;729;-60
2024/01/03 07:02:48;;;;;;;;;;;17.70;44.10;;;;;;1566722;74;1519;-60
2024/01/03 07:04:49;;;;;;;;;;;17.70;44.10;;;;;;1570849;74;732;-61
2024/01/03 07:06:51;;;;;;;;;;;17.70;44.10;;;;;;1574247;74;749;-61
2024/01/03 07:08:53;;;;;;;;;;;17.70;44.10;;;;;;1576828;74;1072;-60
2024/01/03 07:10:55;;;;;;;;;;;17.70;44.10;;;;;;1572215;74;740;-58
2024/01/03 07:12:58;;;;;;;;;;;17.70;44.20;;;;;;1568803;74;1232;-59
2024/01/03 07:15:00;;;;;;;;;;;17.70;44.10;;;;;;1579266;74;1910;-60
2024/01/03 07:17:02;;;;;;;;;;;17.70;44.10;;;;;;1569968;74;1539;-61
2024/01/03 07:19:04;;;;;;;;;;;17.70;44.10;;;;;;1562449;74;760;-60
2024/01/03 07:21:05;;;;;;;;;;;17.70;44.10;;;;;;1568476;74;693;-59
2024/01/03 07:23:07;;;;;;;;;;;17.70;44.10;;;;;;1580697;74;1137;-59
2024/01/03 07:25:09;;;;;;;;;;;17.70;44.10;;;;;;1550555;76;788;-59
2024/01/03 07:27:11;;;;;;;;;;;17.70;44.10;;;;;;1543155;76;698;-59
2024/01/03 07:29:13;;;;;;;;;;;17.70;44.10;;;;;;1541659;76;783;-61
2024/01/03 07:31:15;;;;;;;;;;;17.70;44.10;;;;;;1551984;76;1522;-60
2024/01/03 07:33:17;;;;;;;;;;;17.80;44.10;;;;;;1541954;76;1083;-59
2024/01/03 07:35:19;;;;;;;;;;;17.70;44.10;;;;;;1544396;76;1941;-60
2024/01/03 07:37:21;;;;;;;;;;;17.70;44.10;;;;;;1548381;76;697;-59
2024/01/03 07:39:23;;;;;;;;;;;17.70;44.10;;;;;;1548058;76;828;-60
2024/01/03 07:41:25;;;;;;;;;;;17.70;44.10;;;;;;1545354;76;787;-60
2024/01/03 07:43:27;;;;;;;;;;;17.70;44.00;;;;;;1546975;75;1181;-60
2024/01/03 07:45:29;;;;;;;;;;;17.70;44.10;;;;;;1546919;76;1535;-60
2024/01/03 07:47:31;;;;;;;;;;;17.70;44.10;;;;;;1549687;76;772;-60
2024/01/03 07:49:33;;;;;;;;;;;17.70;44.10;;;;;;1539127;76;742;-62
2024/01/03 07:51:38;;;;;;;;;;;17.70;44.00;;;;;;1540617;76;739;-60
2024/01/03 07:53:40;;;;;;;;;;;17.70;44.10;;;;;;1568487;74;1148;-59
2024/01/03 07:55:42;;;;;;;;;;;17.70;44.10;;;;;;1572658;74;1942;-60
2024/01/03 07:57:44;;;;;;;;;;;17.70;44.00;;;;;;1575572;74;731;-60
2024/01/03 07:59:46;;;;;;;;;;;17.70;44.10;;;;;;1563687;74;1696;-60
2024/01/03 08:01:48;;;;;;;;;;;17.70;44.10;;;;;;1567948;74;718;-61
2024/01/03 08:03:50;;;;;;;;;;;17.70;44.00;;;;;;1567240;74;1182;-58
2024/01/03 08:05:53;;;;;;;;;;;17.70;44.10;;;;;;1569508;74;861;-61
2024/01/03 08:07:55;;;;;;;;;;;17.70;44.10;;;;;;1573168;74;736;-60
2024/01/03 08:09:57;;;;;;;;;;;17.70;44.10;;;;;;1572264;74;1066;-59
2024/01/03 08:11:59;;;;;;;;;;;17.70;44.10;;;;;;1571867;74;756;-59
2024/01/03 08:14:01;;;;;;;;;;;17.70;44.00;;;;;;1569142;74;1497;-60
2024/01/03 08:16:03;;;;;;;;;;;17.70;44.10;;;;;;1569808;75;1908;-60
2024/01/03 08:18:05;;;;;;;;;;;17.80;44.00;;;;;;1573134;74;764;-58
2024/01/03 08:20:08;;;;;;;;;;;17.70;44.10;;;;;;1565056;74;748;-58
2024/01/03 08:22:10;;;;;;;;;;;17.70;44.00;;;;;;1577480;74;728;-60
2024/01/03 08:24:12;;;;;;;;;;;17.70;44.00;;;;;;1577632;75;1160;-60
2024/01/03 08:26:14;;;;;;;;;;;17.70;44.10;;;;;;1566518;74;705;-57
2024/01/03 08:28:16;;;;;;;;;;;17.70;44.10;;;;;;1565940;74;1573;-57
2024/01/03 08:30:18;;;;;;;;;;;17.70;44.10;;;;;;1569558;74;777;-60
2024/01/03 08:32:20;;;;;;;;;;;17.70;44.10;;;;;;1565690;75;737;-59
2024/01/03 08:34:22;;;;;;;;;;;17.70;44.10;;;;;;1577589;74;1125;-60
2024/01/03 08:36:25;;;;;;;;;;;17.80;44.10;;;;;;1576784;74;698;-60
2024/01/03 08:38:27;;;;;;;;;;;17.70;44.10;;;;;;1568035;74;1746;-60
2024/01/03 08:40:29;;;;;;;;;;;17.70;44.10;;;;;;1572430;74;669;-60
2024/01/03 08:42:31;;;;;;;;;;;17.70;44.10;;;;;;1575021;74;1464;-60
2024/01/03 08:44:33;;;;;;;;;;;17.70;44.10;;;;;;1569757;74;1152;-60
2024/01/03 08:46:41;;;;;;;;;;;17.70;44.10;;;;;;1571123;74;790;-60
2024/01/03 08:48:42;;;;;;;;;;;17.70;44.00;;;;;;1568417;74;767;-59
2024/01/03 08:50:44;;;;;;;;;;;17.70;44.10;;;;;;1569936;74;692;-60
2024/01/03 08:52:46;;;;;;;;;;;17.70;44.10;;;;;;1567698;74;724;-60
2024/01/03 08:54:48;;;;;;;;;;;17.70;44.10;;;;;;1565115;75;1950;-60
2024/01/03 08:56:50;;;;;;;;;;;17.70;44.10;;;;;;1575094;74;800;-60
2024/01/03 08:58:52;;;;;;;;;;;17.70;44.10;;;;;;1569637;74;858;-57
2024/01/03 09:00:54;;;;;;;;;;;17.70;44.10;;;;;;1571707;74;786;-55
2024/01/03 09:03:00;;;;;;;;;;;17.80;44.10;;;;;;1573185;74;1186;-55
2024/01/03 09:04:59;;;;;;;;;;;17.70;44.00;;;;;;1578259;74;987;-60
2024/01/03 09:07:01;;;;;;;;;;;17.80;44.10;;;;;;1546160;76;768;-59
2024/01/03 09:09:03;;;;;;;;;;;17.70;44.00;;;;;;1546795;75;1533;-60
2024/01/03 09:11:15;;;;;;;;;;;17.70;44.00;;;;;;1560512;74;1103;-59
2024/01/03 09:13:14;;;;;;;;;;;17.70;44.10;;;;;;1566087;74;1704;-59
2024/01/03 09:15:16;;;;;;;;;;;17.80;44.10;;;;;;1567357;74;1945;-58
2024/01/03 09:17:18;;;;;;;;;;;17.70;44.10;;;;;;1564483;74;700;-60
2024/01/03 09:19:20;;;;;;;;;;;17.70;44.10;;;;;;1570480;74;695;-58
2024/01/03 09:21:22;;;;;;;;;;;17.70;44.10;;;;;;1560888;75;741;-58
2024/01/03 09:23:23;;;;;;;;;;;17.70;44.00;;;;;;1565501;74;1643;-60
2024/01/03 09:25:25;;;;;;;;;;;17.80;44.00;;;;;;1561462;74;692;-54
2024/01/03 09:27:27;;;;;;;;;;;17.70;44.00;;;;;;1599490;73;774;-59
2024/01/03 09:29:29;;;;;;;;;;;17.70;44.00;;;;;;1604370;73;776;-59
2024/01/03 09:31:33;;;;;;;;;;;17.70;44.10;;;;;;1603075;73;733;-59
2024/01/03 09:33:35;;;;;;;;;;;17.70;44.10;;;;;;1605241;73;1666;-60
2024/01/03 09:35:36;;;;;;;;;;;17.70;44.00;;;;;;1598058;73;1933;-59
2024/01/03 09:37:38;;;;;;;;;;;17.70;44.10;;;;;;1603370;73;1527;-60
2024/01/03 09:39:40;;;;;;;;;;;17.70;44.10;;;;;;1612295;73;735;-60
2024/01/03 09:41:42;;;;;;;;;;;17.70;44.20;;;;;;1598603;73;713;-59
2024/01/03 09:43:45;;;;;;;;;;;17.70;44.20;;;;;;1601745;73;1175;-60
2024/01/03 09:45:47;;;;;;;;;;;17.70;44.20;;;;;;1597950;73;720;-58
2024/01/03 09:47:49;;;;;;;;;;;17.70;43.40;;;;;;1597426;73;761;-57
2024/01/03 09:49:51;;;;;;;;;;;17.70;42.80;;;;;;1598289;73;731;-59
2024/01/03 09:51:53;;;;;;;;;;;17.70;42.80;;;;;;1594955;73;1586;-57
2024/01/03 09:53:54;;;;;;;;;;;17.80;43.10;;;;;;1596626;73;1143;-60
2024/01/03 09:55:56;;;;;;;;;;;17.80;43.80;;;;;;1600433;73;1931;-59
2024/01/03 09:57:58;;;;;;;;;;;17.70;44.10;;;;;;1600649;73;801;-59
2024/01/03 10:00:00;;;;;;;;;;;17.70;44.20;;;;;;1603558;73;732;-59
2024/01/03 10:02:02;;;;;;;;;;;17.80;44.20;;;;;;1602981;73;688;-59
2024/01/03 10:04:05;;;;;;;;;;;17.80;44.20;;;;;;1607847;73;1144;-58
2024/01/03 10:06:13;;;;;;;;;;;17.70;44.30;;;;;;1600690;73;1293;-59
2024/01/03 10:08:16;;;;;;;;;;;17.80;44.20;;;;;;1598463;73;693;-59
2024/01/03 10:10:33;;;;;;;;;;;17.80;44.00;;;;;;1597688;73;1086;-60
2024/01/03 10:12:35;;;;;;;;;;;17.80;44.10;;;;;;1605669;73;692;-59
2024/01/03 10:14:37;;;;;;;;;;;17.80;44.10;;;;;;1603521;73;1128;-60
2024/01/03 10:16:39;;;;;;;;;;;17.80;44.20;;;;;;1608686;73;1922;-59
2024/01/03 10:18:41;;;;;;;;;;;17.80;44.20;;;;;;1611853;73;878;-58
2024/01/03 10:20:42;;;;;;;;;;;17.70;44.10;;;;;;1607670;73;1567;-59
2024/01/03 10:22:44;;;;;;;;;;;17.70;44.10;;;;;;1606186;73;716;-58
2024/01/03 10:24:46;;;;;;;;;;;17.80;44.10;;;;;;1604963;73;1143;-59
2024/01/03 10:26:48;;;;;;;;;;;17.80;44.10;;;;;;1605314;73;720;-59
2024/01/03 10:28:50;;;;;;;;;;;17.70;44.10;;;;;;1615422;73;763;-60
2024/01/03 10:30:52;;;;;;;;;;;17.80;44.20;;;;;;1604232;73;843;-54
2024/01/03 10:33:01;;;;;;;;;;;17.80;44.10;;;;;;1607815;73;1066;-59
2024/01/03 10:35:15;;;;;;;;;;;17.80;44.10;;;;;;1603597;73;1648;-59
2024/01/03 10:37:17;;;;;;;;;;;17.80;44.10;;;;;;1607202;73;795;-59
2024/01/03 10:39:20;;;;;;;;;;;17.80;44.10;;;;;;1603353;73;709;-61
2024/01/03 10:41:21;;;;;;;;;;;17.70;44.10;;;;;;1604035;73;755;-60
2024/01/03 10:43:23;;;;;;;;;;;17.70;44.10;;;;;;1614372;73;1123;-60
2024/01/03 10:45:25;;;;;;;;;;;17.80;44.10;;;;;;1607795;73;815;-61
2024/01/03 10:47:27;;;;;;;;;;;17.80;44.10;;;;;;1604064;73;1539;-59
2024/01/03 10:49:29;;;;;;;;;;;17.80;44.10;;;;;;1611366;73;749;-61
2024/01/03 10:51:35;;;;;;;;;;;17.80;44.10;;;;;;1601798;73;750;-59
2024/01/03 10:53:35;;;;;;;;;;;17.80;44.10;;;;;;1605569;73;1457;-59
2024/01/03 10:55:38;;;;;;;;;;;17.80;44.10;;;;;;1605270;73;1913;-60
2024/01/03 10:57:41;;;;;;;;;;;17.70;44.20;;;;;;1605036;73;671;-59
2024/01/03 10:59:44;;;;;;;;;;;17.80;44.10;;;;;;1614213;73;727;-61
2024/01/03 11:01:47;;;;;;;;;;;17.70;44.00;;;;;;1603796;73;1969;-60
2024/01/03 11:03:51;;;;;;;;;;;17.80;44.00;;;;;;1611690;73;1141;-60
2024/01/03 11:05:57;;;;;;;;;;;17.70;44.10;;;;;;1614341;73;752;-58
2024/01/03 11:08:00;;;;;;;;;;;17.70;44.00;;;;;;1607681;73;772;-59
2024/01/03 11:10:02;;;;;;;;;;;17.70;44.00;;;;;;1605686;73;717;-59
2024/01/03 11:12:10;;;;;;;;;;;17.80;44.00;;;;;;1605619;73;1110;-59
2024/01/03 11:14:19;;;;;;;;;;;17.80;44.00;;;;;;1604192;73;1183;-58
2024/01/03 11:16:40;;;;;;;;;;;17.80;44.10;;;;;;1601369;73;1942;-60
2024/01/03 11:18:43;;;;;;;;;;;17.80;44.00;;;;;;1604566;73;790;-59
2024/01/03 11:20:45;;;;;;;;;;;17.70;44.00;;;;;;1605491;73;808;-60
2024/01/03 11:22:57;;;;;;;;;;;17.80;44.00;;;;;;1611132;73;1146;-59
2024/01/03 11:24:59;;;;;;;;;;;17.80;44.00;;;;;;1602685;73;697;-59
2024/01/03 11:27:04;;;;;;;;;;;17.80;44.00;;;;;;1583321;74;736;-60
2024/01/03 11:29:05;;;;;;;;;;;17.80;44.00;;;;;;1603521;73;1313;-59
2024/01/03 11:31:07;;;;;;;;;;;17.80;44.00;;;;;;1607581;73;1582;-60
2024/01/03 11:33:25;;;;;;;;;;;17.70;44.00;;;;;;1603705;73;1150;-59
2024/01/03 11:35:29;;;;;;;;;;;17.80;44.00;;;;;;1604083;73;1921;-57
2024/01/03 11:37:31;;;;;;;;;;;17.80;44.00;;;;;;1613463;73;1896;-61
2024/01/03 11:39:34;;;;;;;;;;;17.70;44.00;;;;;;1607934;73;722;-59
2024/01/03 11:41:36;;;;;;;;;;;17.80;44.00;;;;;;1607252;73;1870;-58
2024/01/03 11:43:38;;;;;;;;;;;17.70;44.00;;;;;;1604586;73;1513;-60
2024/01/03 11:45:40;;;;;;;;;;;17.80;44.00;;;;;;1602235;73;751;-58
2024/01/03 11:47:45;;;;;;;;;;;17.70;44.00;;;;;;1601329;73;808;-59
2024/01/03 11:49:47;;;;;;;;;;;17.80;44.00;;;;;;1612516;73;686;-59
2024/01/03 11:51:49;;;;;;;;;;;17.70;44.00;;;;;;1606517;73;758;-59
2024/01/03 11:53:51;;;;;;;;;;;17.70;44.00;;;;;;1601420;73;1143;-60
2024/01/03 11:55:54;;;;;;;;;;;17.70;43.90;;;;;;1607624;73;1923;-60
2024/01/03 11:57:57;;;;;;;;;;;17.80;44.00;;;;;;1605792;73;1484;-59
2024/01/03 11:59:59;;;;;;;;;;;17.80;44.00;;;;;;1602545;73;973;-56
2024/01/03 12:02:01;;;;;;;;;;;17.80;43.90;;;;;;1612183;73;699;-59
2024/01/03 12:04:13;;;;;;;;;;;17.80;43.90;;;;;;1603994;73;1167;-59
2024/01/03 12:06:16;;;;;;;;;;;17.70;43.90;;;;;;1605088;73;728;-59
2024/01/03 12:08:18;;;;;;;;;;;17.80;43.90;;;;;;1606755;73;2165;-59
2024/01/03 12:10:20;;;;;;;;;;;17.80;43.90;;;;;;1607599;73;735;-59